Time,TemperatureF,DewpointF,PressureIn,WindDirection,WindDirectionDegrees,WindSpeedMPH,WindSpeedGustMPH,Humidity,HourlyPrecipIn,Conditions,Clouds,dailyrainin,SoftwareType,DateUTC
2013-06-10 00:00:00,60.6,56.4,29.85,NW,310,2.0,19.0,86,0.00,,,0.21,Wunderground v.1.15,2013-06-10 05:00:00,
2013-06-10 00:06:00,60.2,56.0,29.86,NW,309,2.0,19.0,86,0.00,,,0.00,Wunderground v.1.15,2013-06-10 05:06:00,
2013-06-10 00:11:00,59.6,55.7,29.86,NW,309,3.0,19.0,87,0.00,,,0.00,Wunderground v.1.15,2013-06-10 05:11:00,
2013-06-10 00:17:00,59.1,55.2,29.86,WNW,291,3.0,19.0,87,0.00,,,0.00,Wunderground v.1.15,2013-06-10 05:17:00,
2013-06-10 00:23:00,59.0,55.4,29.86,WNW,300,3.0,19.0,88,0.00,,,0.00,Wunderground v.1.15,2013-06-10 05:23:00,
2013-06-10 00:29:00,59.0,55.4,29.86,WNW,300,3.0,19.0,88,0.00,,,0.00,Wunderground v.1.15,2013-06-10 05:29:00,
2013-06-10 00:35:00,58.7,55.2,29.87,WNW,300,3.0,19.0,88,0.00,,,0.00,Wunderground v.1.15,2013-06-10 05:35:00,
2013-06-10 00:40:00,58.4,55.2,29.86,WNW,300,3.0,3.0,89,0.00,,,0.00,Wunderground v.1.15,2013-06-10 05:40:00,
2013-06-10 00:46:00,58.2,55.0,29.86,WNW,300,2.0,19.0,89,0.00,,,0.00,Wunderground v.1.15,2013-06-10 05:46:00,
2013-06-10 00:51:00,58.1,54.9,29.86,WNW,300,2.0,19.0,89,0.00,,,0.00,Wunderground v.1.15,2013-06-10 05:51:00,
2013-06-10 00:57:00,58.0,54.8,29.86,WNW,300,2.0,19.0,89,0.00,,,0.00,Wunderground v.1.15,2013-06-10 05:57:00,
2013-06-10 01:02:00,57.9,55.0,29.86,WNW,300,3.0,19.0,90,0.00,,,0.00,Wunderground v.1.15,2013-06-10 06:02:00,
2013-06-10 01:08:00,57.8,54.9,29.86,WNW,300,3.0,19.0,90,0.00,,,0.00,Wunderground v.1.15,2013-06-10 06:08:00,
2013-06-10 01:13:00,58.0,55.1,29.86,WNW,286,4.0,19.0,90,0.00,,,0.00,Wunderground v.1.15,2013-06-10 06:13:00,
2013-06-10 01:19:00,58.0,55.1,29.86,WNW,286,4.0,19.0,90,0.00,,,0.00,Wunderground v.1.15,2013-06-10 06:19:00,
2013-06-10 01:25:00,58.1,55.5,29.86,WNW,285,4.0,19.0,91,0.00,,,0.00,Wunderground v.1.15,2013-06-10 06:25:00,
2013-06-10 01:31:00,58.2,55.6,29.86,WNW,294,5.0,19.0,91,0.00,,,0.00,Wunderground v.1.15,2013-06-10 06:31:00,
2013-06-10 02:16:00,58.5,56.0,29.87,West,269,6.0,8.0,90,0.00,,,0.00,weatherlink.com 1.10,2013-06-10 07:16:00,
2013-06-10 02:22:00,58.4,55.5,29.86,WNW,295,4.0,19.0,90,0.00,,,0.00,Wunderground v.1.15,2013-06-10 07:22:00,
2013-06-10 02:28:00,58.2,55.3,29.86,NW,311,4.0,19.0,90,0.00,,,0.00,Wunderground v.1.15,2013-06-10 07:28:00,
2013-06-10 02:33:00,58.1,55.2,29.86,NNW,329,4.0,19.0,90,0.00,,,0.00,Wunderground v.1.15,2013-06-10 07:33:00,
2013-06-10 02:39:00,58.0,55.1,29.86,NNW,329,4.0,19.0,90,0.00,,,0.00,Wunderground v.1.15,2013-06-10 07:39:00,
2013-06-10 02:44:00,57.8,54.9,29.86,WNW,299,4.0,19.0,90,0.00,,,0.00,Wunderground v.1.15,2013-06-10 07:44:00,
2013-06-10 02:50:00,57.5,54.6,29.86,NW,311,4.0,19.0,90,0.00,,,0.00,Wunderground v.1.15,2013-06-10 07:50:00,
2013-06-10 02:55:00,57.5,54.9,29.86,NW,307,4.0,19.0,91,0.00,,,0.00,Wunderground v.1.15,2013-06-10 07:55:00,
2013-06-10 03:00:00,57.6,55.0,29.86,NW,315,4.0,4.0,91,0.00,,,0.00,Wunderground v.1.15,2013-06-10 08:00:00,
2013-06-10 03:06:00,57.5,54.9,29.86,NW,315,3.0,19.0,91,0.00,,,0.00,Wunderground v.1.15,2013-06-10 08:06:00,
2013-06-10 03:11:00,57.3,54.7,29.86,NW,315,3.0,19.0,91,0.00,,,0.00,Wunderground v.1.15,2013-06-10 08:11:00,
2013-06-10 03:17:00,57.1,54.0,29.86,NW,315,2.0,6.0,90,0.00,,,0.00,weatherlink.com 1.10,2013-06-10 08:17:00,
2013-06-10 03:22:00,56.7,53.8,29.86,NW,315,3.0,19.0,90,0.00,,,0.00,Wunderground v.1.15,2013-06-10 08:22:00,
2013-06-10 03:28:00,56.3,53.4,29.87,NW,315,2.0,19.0,90,0.00,,,0.00,Wunderground v.1.15,2013-06-10 08:28:00,
2013-06-10 03:33:00,56.2,53.6,29.87,NW,315,1.0,19.0,91,0.00,,,0.00,Wunderground v.1.15,2013-06-10 08:33:00,
2013-06-10 03:39:00,56.0,53.4,29.87,NW,315,0.0,19.0,91,0.00,,,0.00,Wunderground v.1.15,2013-06-10 08:39:00,
2013-06-10 03:45:00,55.9,53.3,29.86,NW,315,1.0,19.0,91,0.00,,,0.00,Wunderground v.1.15,2013-06-10 08:45:00,
2013-06-10 03:51:00,55.9,53.3,29.86,NW,315,2.0,19.0,91,0.00,,,0.00,Wunderground v.1.15,2013-06-10 08:51:00,
2013-06-10 03:57:00,55.9,53.3,29.86,NW,315,1.0,19.0,91,0.00,,,0.00,Wunderground v.1.15,2013-06-10 08:57:00,
2013-06-10 04:03:00,56.0,54.0,29.86,NW,315,1.0,4.0,92,0.00,,,0.00,weatherlink.com 1.10,2013-06-10 09:03:00,
2013-06-10 04:08:00,55.6,53.0,29.86,NW,315,1.0,19.0,91,0.00,,,0.00,Wunderground v.1.15,2013-06-10 09:08:00,
2013-06-10 04:14:00,55.1,52.5,29.86,NW,315,1.0,19.0,91,0.00,,,0.00,Wunderground v.1.15,2013-06-10 09:14:00,
2013-06-10 04:20:00,54.8,52.0,29.86,NW,315,0.0,2.0,91,0.00,,,0.00,weatherlink.com 1.10,2013-06-10 09:20:00,
2013-06-10 04:25:00,54.7,52.4,29.86,NW,315,1.0,19.0,92,0.00,,,0.00,Wunderground v.1.15,2013-06-10 09:25:00,
2013-06-10 04:30:00,55.0,52.7,29.86,NW,315,1.0,19.0,92,0.00,,,0.00,Wunderground v.1.15,2013-06-10 09:30:00,
2013-06-10 04:36:00,55.3,53.0,29.86,NW,315,3.0,19.0,92,0.00,,,0.00,Wunderground v.1.15,2013-06-10 09:36:00,
2013-06-10 04:42:00,55.8,53.8,29.86,NW,315,2.0,19.0,93,0.00,,,0.00,Wunderground v.1.15,2013-06-10 09:42:00,
2013-06-10 04:47:00,55.8,54.0,29.87,NW,315,2.0,4.0,93,0.00,,,0.00,weatherlink.com 1.10,2013-06-10 09:47:00,
2013-06-10 04:53:00,55.8,53.8,29.87,NW,315,1.0,19.0,93,0.00,,,0.00,Wunderground v.1.15,2013-06-10 09:53:00,
2013-06-10 04:59:00,56.0,54.0,29.87,NW,315,1.0,19.0,93,0.00,,,0.00,Wunderground v.1.15,2013-06-10 09:59:00,
2013-06-10 05:07:00,56.6,54.6,29.88,NW,315,2.0,19.0,93,0.00,,,0.00,Wunderground v.1.15,2013-06-10 10:07:00,
2013-06-10 05:13:00,56.8,54.8,29.87,NW,315,2.0,19.0,93,0.00,,,0.00,Wunderground v.1.15,2013-06-10 10:13:00,
2013-06-10 05:19:00,56.9,54.9,29.87,NW,315,1.0,19.0,93,0.00,,,0.00,Wunderground v.1.15,2013-06-10 10:19:00,
2013-06-10 05:25:00,57.0,55.0,29.88,NW,315,3.0,19.0,93,0.00,,,0.00,Wunderground v.1.15,2013-06-10 10:25:00,
2013-06-10 05:31:00,57.1,55.1,29.88,NW,315,2.0,19.0,93,0.00,,,0.00,Wunderground v.1.15,2013-06-10 10:31:00,
2013-06-10 05:36:00,57.0,55.0,29.88,NW,315,1.0,19.0,93,0.00,,,0.00,Wunderground v.1.15,2013-06-10 10:36:00,
2013-06-10 05:42:00,57.0,55.0,29.88,NW,315,2.0,19.0,93,0.00,,,0.00,Wunderground v.1.15,2013-06-10 10:42:00,
2013-06-10 05:48:00,57.1,55.0,29.88,NW,315,3.0,5.0,93,0.00,,,0.00,weatherlink.com 1.10,2013-06-10 10:48:00,
2013-06-10 05:53:00,57.0,55.0,29.88,NW,315,3.0,4.0,93,0.00,,,0.00,Wunderground v.1.15,2013-06-10 10:53:00,
2013-06-10 05:58:00,57.0,55.0,29.88,NW,315,3.0,4.0,93,0.00,,,0.00,Wunderground v.1.15,2013-06-10 10:58:00,
2013-06-10 06:03:00,57.0,55.0,29.88,NW,315,0.0,6.0,93,0.00,,,0.00,weatherlink.com 1.10,2013-06-10 11:03:00,
2013-06-10 06:09:00,57.1,55.1,29.88,NW,315,2.0,5.0,93,0.00,,,0.00,Wunderground v.1.15,2013-06-10 11:09:00,
2013-06-10 06:14:00,57.1,55.1,29.88,NW,315,1.0,3.0,93,0.00,,,0.00,Wunderground v.1.15,2013-06-10 11:14:00,
2013-06-10 06:21:00,57.0,55.0,29.88,NW,315,2.0,2.0,93,0.00,,,0.00,Wunderground v.1.15,2013-06-10 11:21:00,
2013-06-10 06:27:00,57.0,55.0,29.88,NW,315,1.0,2.0,93,0.00,,,0.00,Wunderground v.1.15,2013-06-10 11:27:00,
2013-06-10 06:32:00,57.0,55.0,29.89,NW,315,0.0,6.0,93,0.00,,,0.00,Wunderground v.1.15,2013-06-10 11:32:00,
2013-06-10 06:38:00,57.1,55.1,29.89,West,278,1.0,6.0,93,0.00,,,0.00,Wunderground v.1.15,2013-06-10 11:38:00,
2013-06-10 06:44:00,57.0,55.0,29.89,West,278,3.0,6.0,93,0.00,,,0.00,Wunderground v.1.15,2013-06-10 11:44:00,
2013-06-10 06:49:00,57.0,55.0,29.90,West,277,3.0,6.0,93,0.00,,,0.00,Wunderground v.1.15,2013-06-10 11:49:00,
2013-06-10 06:54:00,56.9,54.9,29.90,West,278,3.0,6.0,93,0.00,,,0.00,Wunderground v.1.15,2013-06-10 11:54:00,
2013-06-10 07:00:00,56.9,54.9,29.90,West,278,3.0,6.0,93,0.00,,,0.00,Wunderground v.1.15,2013-06-10 12:00:00,
2013-06-10 07:06:00,56.9,55.2,29.90,West,277,3.0,6.0,94,0.00,,,0.00,Wunderground v.1.15,2013-06-10 12:06:00,
2013-06-10 07:12:00,56.9,55.2,29.90,NW,322,4.0,6.0,94,0.00,,,0.00,Wunderground v.1.15,2013-06-10 12:12:00,
2013-06-10 07:17:00,56.8,55.1,29.90,NW,312,4.0,6.0,94,0.00,,,0.00,Wunderground v.1.15,2013-06-10 12:17:00,
2013-06-10 07:23:00,56.8,55.1,29.90,NW,313,2.0,6.0,94,0.00,,,0.00,Wunderground v.1.15,2013-06-10 12:23:00,
2013-06-10 07:29:00,56.8,55.1,29.90,NW,325,2.0,6.0,94,0.00,,,0.00,Wunderground v.1.15,2013-06-10 12:29:00,
2013-06-10 07:34:00,56.7,55.0,29.90,NW,325,3.0,6.0,94,0.00,,,0.00,Wunderground v.1.15,2013-06-10 12:34:00,
2013-06-10 07:40:00,56.8,55.1,29.90,WNW,299,3.0,6.0,94,0.00,,,0.00,Wunderground v.1.15,2013-06-10 12:40:00,
2013-06-10 07:46:00,56.8,55.1,29.90,West,267,2.0,6.0,94,0.00,,,0.00,Wunderground v.1.15,2013-06-10 12:46:00,
2013-06-10 07:52:00,56.8,55.1,29.90,West,264,2.0,6.0,94,0.00,,,0.00,Wunderground v.1.15,2013-06-10 12:52:00,
2013-06-10 07:57:00,56.8,55.1,29.91,West,259,2.0,6.0,94,0.00,,,0.00,Wunderground v.1.15,2013-06-10 12:57:00,
2013-06-10 08:03:00,57.0,55.0,29.91,WSW,257,4.0,4.0,94,0.00,,,0.00,weatherlink.com 1.10,2013-06-10 13:03:00,
2013-06-10 08:08:00,57.0,55.3,29.91,West,259,3.0,6.0,94,0.00,,,0.00,Wunderground v.1.15,2013-06-10 13:08:00,
2013-06-10 08:13:00,57.0,55.3,29.92,West,271,3.0,6.0,94,0.00,,,0.00,Wunderground v.1.15,2013-06-10 13:13:00,
2013-06-10 08:19:00,57.1,55.4,29.91,NW,317,3.0,6.0,94,0.00,,,0.00,Wunderground v.1.15,2013-06-10 13:19:00,
2013-06-10 08:25:00,57.4,55.7,29.91,NNE,13,2.0,6.0,94,0.00,,,0.00,Wunderground v.1.15,2013-06-10 13:25:00,
2013-06-10 08:31:00,57.7,56.0,29.90,ENE,78,3.0,7.0,94,0.00,,,0.00,Wunderground v.1.15,2013-06-10 13:31:00,
2013-06-10 08:36:00,57.9,56.2,29.89,East,83,4.0,7.0,94,0.00,,,0.00,Wunderground v.1.15,2013-06-10 13:36:00,
2013-06-10 08:42:00,58.1,56.4,29.89,East,96,5.0,7.0,94,0.00,,,0.00,Wunderground v.1.15,2013-06-10 13:42:00,
2013-06-10 08:48:00,58.2,56.8,29.89,ESE,105,4.0,7.0,95,0.00,,,0.00,Wunderground v.1.15,2013-06-10 13:48:00,
2013-06-10 08:53:00,58.4,57.0,29.90,ENE,61,4.0,6.0,95,0.00,,,0.00,Wunderground v.1.15,2013-06-10 13:53:00,
2013-06-10 08:59:00,58.7,57.3,29.90,East,91,4.0,6.0,95,0.00,,,0.00,Wunderground v.1.15,2013-06-10 13:59:00,
2013-06-10 09:05:00,59.0,57.6,29.90,ENE,76,4.0,7.0,95,0.00,,,0.00,Wunderground v.1.15,2013-06-10 14:05:00,
2013-06-10 09:10:00,59.0,57.6,29.90,East,84,4.0,6.0,95,0.00,,,0.00,Wunderground v.1.15,2013-06-10 14:10:00,
2013-06-10 09:15:00,59.0,57.6,29.91,ENE,74,4.0,6.0,95,0.00,,,0.00,Wunderground v.1.15,2013-06-10 14:15:00,
2013-06-10 09:21:00,59.0,57.6,29.91,East,84,2.0,6.0,95,0.00,,,0.00,Wunderground v.1.15,2013-06-10 14:21:00,
2013-06-10 09:27:00,59.5,58.1,29.90,East,87,2.0,6.0,95,0.00,,,0.00,Wunderground v.1.15,2013-06-10 14:27:00,
2013-06-10 09:32:00,59.9,58.5,29.91,NE,51,2.0,6.0,95,0.00,,,0.00,Wunderground v.1.15,2013-06-10 14:32:00,
2013-06-10 09:38:00,59.7,58.3,29.91,NE,48,2.0,6.0,95,0.00,,,0.00,Wunderground v.1.15,2013-06-10 14:38:00,
2013-06-10 09:43:00,59.7,58.3,29.92,ENE,68,3.0,6.0,95,0.00,,,0.00,Wunderground v.1.15,2013-06-10 14:43:00,
2013-06-10 09:49:00,59.7,58.3,29.91,East,96,2.0,6.0,95,0.00,,,0.00,Wunderground v.1.15,2013-06-10 14:49:00,
2013-06-10 09:54:00,60.0,58.3,29.91,East,96,1.0,6.0,94,0.00,,,0.00,Wunderground v.1.15,2013-06-10 14:54:00,
2013-06-10 10:00:00,60.0,58.3,29.91,ESE,110,1.0,1.0,94,0.00,,,0.00,Wunderground v.1.15,2013-06-10 15:00:00,
2013-06-10 10:07:00,60.4,59.0,29.91,ESE,123,1.0,6.0,95,0.00,,,0.00,Wunderground v.1.15,2013-06-10 15:07:00,
2013-06-10 10:12:00,60.8,59.1,29.91,SSE,166,2.0,6.0,94,0.00,,,0.00,Wunderground v.1.15,2013-06-10 15:12:00,
2013-06-10 10:17:00,61.3,59.6,29.91,SE,130,2.0,6.0,94,0.00,,,0.00,Wunderground v.1.15,2013-06-10 15:17:00,
2013-06-10 10:23:00,62.0,60.3,29.91,ESE,120,1.0,6.0,94,0.00,,,0.00,Wunderground v.1.15,2013-06-10 15:23:00,
2013-06-10 10:29:00,62.1,60.4,29.91,SSE,149,3.0,6.0,94,0.00,,,0.00,Wunderground v.1.15,2013-06-10 15:29:00,
2013-06-10 10:35:00,62.3,61.0,29.91,SE,142,2.0,8.0,94,0.00,,,0.00,weatherlink.com 1.10,2013-06-10 15:35:00,
2013-06-10 10:40:00,62.4,60.3,29.91,SE,144,2.0,6.0,93,0.00,,,0.00,Wunderground v.1.15,2013-06-10 15:40:00,
2013-06-10 10:46:00,62.6,60.5,29.91,ESE,122,2.0,6.0,93,0.00,,,0.00,Wunderground v.1.15,2013-06-10 15:46:00,
2013-06-10 10:52:00,62.9,60.8,29.91,SE,136,2.0,6.0,93,0.00,,,0.00,Wunderground v.1.15,2013-06-10 15:52:00,
2013-06-10 10:57:00,63.0,60.6,29.92,SE,136,2.0,6.0,92,0.00,,,0.00,Wunderground v.1.15,2013-06-10 15:57:00,
2013-06-10 11:03:00,63.1,60.4,29.92,SE,136,1.0,6.0,91,0.00,,,0.00,Wunderground v.1.15,2013-06-10 16:03:00,
2013-06-10 11:09:00,63.4,60.7,29.92,SE,136,0.0,6.0,91,0.00,,,0.00,Wunderground v.1.15,2013-06-10 16:09:00,
2013-06-10 11:15:00,64.0,61.6,29.93,SSE,160,1.0,6.0,92,0.00,,,0.00,Wunderground v.1.15,2013-06-10 16:15:00,
2013-06-10 11:22:00,64.4,61.4,29.93,South,188,3.0,6.0,90,0.00,,,0.00,Wunderground v.1.15,2013-06-10 16:22:00,
2013-06-10 11:28:00,65.1,61.8,29.92,SE,142,3.0,6.0,89,0.00,,,0.00,Wunderground v.1.15,2013-06-10 16:28:00,
2013-06-10 11:33:00,65.4,61.4,29.92,SE,142,2.0,6.0,87,0.00,,,0.00,Wunderground v.1.15,2013-06-10 16:33:00,
2013-06-10 11:39:00,66.0,62.0,29.92,East,97,2.0,6.0,87,0.00,,,0.00,Wunderground v.1.15,2013-06-10 16:39:00,
2013-06-10 11:45:00,66.5,62.2,29.92,NNE,22,2.0,6.0,86,0.00,,,0.00,Wunderground v.1.15,2013-06-10 16:45:00,
2013-06-10 11:50:00,67.6,64.0,29.92,East,90,5.0,7.0,88,0.00,,,0.00,weatherlink.com 1.10,2013-06-10 16:50:00,
2013-06-10 11:55:00,67.6,62.6,29.92,SE,136,4.0,6.0,84,0.00,,,0.00,Wunderground v.1.15,2013-06-10 16:55:00,
2013-06-10 12:01:00,67.5,62.5,29.92,SE,138,2.0,6.0,84,0.00,,,0.00,Wunderground v.1.15,2013-06-10 17:01:00,
2013-06-10 12:07:00,68.3,63.6,29.92,ESE,111,1.0,6.0,85,0.00,,,0.00,Wunderground v.1.15,2013-06-10 17:07:00,
2013-06-10 12:13:00,69.1,64.1,29.92,ESE,110,1.0,6.0,84,0.00,,,0.00,Wunderground v.1.15,2013-06-10 17:13:00,
2013-06-10 12:18:00,69.6,64.2,29.92,ESE,109,1.0,6.0,83,0.00,,,0.00,Wunderground v.1.15,2013-06-10 17:18:00,
2013-06-10 12:23:00,70.1,64.0,29.92,SE,146,2.0,6.0,81,0.00,,,0.00,Wunderground v.1.15,2013-06-10 17:23:00,
2013-06-10 12:28:00,70.3,64.2,29.92,ESE,113,2.0,6.0,81,0.00,,,0.00,Wunderground v.1.15,2013-06-10 17:28:00,
2013-06-10 12:34:00,70.4,63.2,29.91,SSE,167,2.0,6.0,78,0.00,,,0.00,Wunderground v.1.15,2013-06-10 17:34:00,
2013-06-10 12:40:00,71.2,65.1,29.91,ESE,119,2.0,6.0,81,0.00,,,0.00,Wunderground v.1.15,2013-06-10 17:40:00,
2013-06-10 12:46:00,71.5,63.9,29.91,South,180,3.0,8.0,77,0.00,,,0.00,Wunderground v.1.15,2013-06-10 17:46:00,
2013-06-10 12:52:00,71.8,64.6,29.91,SE,144,3.0,6.0,78,0.00,,,0.00,Wunderground v.1.15,2013-06-10 17:52:00,
2013-06-10 12:57:00,72.0,64.0,29.90,SSE,152,3.0,6.0,76,0.00,,,0.00,Wunderground v.1.15,2013-06-10 17:57:00,
2013-06-10 13:02:00,72.2,64.2,29.90,SW,215,3.0,6.0,76,0.00,,,0.00,Wunderground v.1.15,2013-06-10 18:02:00,
2013-06-10 13:08:00,72.4,64.4,29.90,SSE,160,4.0,6.0,76,0.00,,,0.00,Wunderground v.1.15,2013-06-10 18:08:00,
2013-06-10 13:14:00,72.6,64.6,29.90,SE,134,3.0,6.0,76,0.00,,,0.00,Wunderground v.1.15,2013-06-10 18:14:00,
2013-06-10 13:20:00,73.0,65.0,29.90,ESE,118,3.0,7.0,75,0.00,,,0.00,weatherlink.com 1.10,2013-06-10 18:20:00,
2013-06-10 13:25:00,73.5,65.5,29.90,ESE,121,3.0,6.0,76,0.00,,,0.00,Wunderground v.1.15,2013-06-10 18:25:00,
2013-06-10 13:31:00,73.7,65.3,29.89,SSW,200,4.0,7.0,75,0.00,,,0.00,Wunderground v.1.15,2013-06-10 18:31:00,
2013-06-10 13:37:00,73.3,64.1,29.90,SE,142,4.0,7.0,73,0.00,,,0.00,Wunderground v.1.15,2013-06-10 18:37:00,
2013-06-10 13:43:00,73.5,64.7,29.89,SE,128,4.0,6.0,74,0.00,,,0.00,Wunderground v.1.15,2013-06-10 18:43:00,
2013-06-10 13:48:00,73.7,65.3,29.89,SSE,167,4.0,6.0,75,0.00,,,0.00,Wunderground v.1.15,2013-06-10 18:48:00,
2013-06-10 13:54:00,73.7,64.1,29.89,South,183,5.0,6.0,72,0.00,,,0.00,Wunderground v.1.15,2013-06-10 18:54:00,
2013-06-10 14:01:00,73.7,63.7,29.89,SE,128,4.0,6.0,71,0.00,,,0.00,Wunderground v.1.15,2013-06-10 19:01:00,
2013-06-10 14:07:00,74.0,64.4,29.88,South,178,4.0,7.0,72,0.00,,,0.00,Wunderground v.1.15,2013-06-10 19:07:00,
2013-06-10 14:13:00,74.4,64.0,29.88,South,175,5.0,6.0,70,0.00,,,0.00,Wunderground v.1.15,2013-06-10 19:13:00,
2013-06-10 14:19:00,74.7,63.9,29.88,South,179,3.0,6.0,69,0.00,,,0.00,Wunderground v.1.15,2013-06-10 19:19:00,
2013-06-10 14:25:00,75.2,64.7,29.87,SE,144,4.0,6.0,70,0.00,,,0.00,Wunderground v.1.15,2013-06-10 19:25:00,
2013-06-10 14:31:00,75.1,64.2,29.87,SE,140,5.0,6.0,69,0.00,,,0.00,Wunderground v.1.15,2013-06-10 19:31:00,
2013-06-10 14:36:00,74.8,64.0,29.87,SSE,150,6.0,8.0,69,0.00,,,0.00,weatherlink.com 1.10,2013-06-10 19:36:00,
2013-06-10 14:41:00,74.5,64.5,29.87,SE,125,5.0,6.0,71,0.00,,,0.00,Wunderground v.1.15,2013-06-10 19:41:00,
2013-06-10 14:47:00,74.7,63.4,29.87,SE,126,5.0,8.0,68,0.00,,,0.00,Wunderground v.1.15,2013-06-10 19:47:00,
2013-06-10 14:53:00,74.8,64.4,29.86,ESE,121,6.0,10.0,70,0.00,,,0.00,Wunderground v.1.15,2013-06-10 19:53:00,
2013-06-10 14:58:00,74.7,64.3,29.86,SSE,156,7.0,10.0,70,0.00,,,0.00,Wunderground v.1.15,2013-06-10 19:58:00,
2013-06-10 15:03:00,74.6,63.8,29.86,SE,145,7.0,9.0,69,0.00,,,0.00,Wunderground v.1.15,2013-06-10 20:03:00,
2013-06-10 15:09:00,74.2,62.1,29.86,SE,146,6.0,9.0,66,0.00,,,0.00,Wunderground v.1.15,2013-06-10 20:09:00,
2013-06-10 15:15:00,74.4,64.4,29.86,SE,144,5.0,7.0,71,0.00,,,0.00,Wunderground v.1.15,2013-06-10 20:15:00,
2013-06-10 15:21:00,74.6,63.8,29.85,SE,129,5.0,6.0,69,0.00,,,0.00,Wunderground v.1.15,2013-06-10 20:21:00,
2013-06-10 15:27:00,74.6,65.0,29.85,SE,132,5.0,8.0,72,0.00,,,0.00,Wunderground v.1.15,2013-06-10 20:27:00,
2013-06-10 15:33:00,75.2,66.3,29.85,SE,144,5.0,7.0,74,0.00,,,0.00,Wunderground v.1.15,2013-06-10 20:33:00,
2013-06-10 15:39:00,75.5,64.6,29.85,ESE,105,6.0,7.0,69,0.00,,,0.00,Wunderground v.1.15,2013-06-10 20:39:00,
2013-06-10 15:45:00,75.6,65.5,29.85,SE,136,6.0,8.0,71,0.00,,,0.00,Wunderground v.1.15,2013-06-10 20:45:00,
2013-06-10 15:51:00,75.8,64.9,29.85,ESE,102,6.0,8.0,69,0.00,,,0.00,Wunderground v.1.15,2013-06-10 20:51:00,
2013-06-10 15:57:00,76.1,65.6,29.85,ESE,123,6.0,10.0,70,0.00,,,0.00,Wunderground v.1.15,2013-06-10 20:57:00,
2013-06-10 16:03:00,76.1,64.8,29.85,SE,126,6.0,9.0,68,0.00,,,0.00,Wunderground v.1.15,2013-06-10 21:03:00,
2013-06-10 16:08:00,76.0,65.5,29.85,SSE,149,7.0,9.0,70,0.00,,,0.00,Wunderground v.1.15,2013-06-10 21:08:00,
2013-06-10 16:13:00,76.2,65.7,29.84,East,87,6.0,7.0,70,0.00,,,0.00,Wunderground v.1.15,2013-06-10 21:13:00,
2013-06-10 16:19:00,76.5,65.6,29.84,ESE,122,6.0,9.0,69,0.00,,,0.00,Wunderground v.1.15,2013-06-10 21:19:00,
2013-06-10 16:25:00,76.5,65.1,29.84,SE,142,7.0,7.0,68,0.00,,,0.00,Wunderground v.1.15,2013-06-10 21:25:00,
2013-06-10 16:30:00,76.5,65.1,29.83,SE,128,7.0,7.0,68,0.00,,,0.00,Wunderground v.1.15,2013-06-10 21:30:00,
2013-06-10 16:36:00,76.6,65.0,29.83,SE,145,7.0,13.0,68,0.00,,,0.00,weatherlink.com 1.10,2013-06-10 21:36:00,
2013-06-10 16:42:00,76.6,65.7,29.83,SSE,156,7.0,8.0,69,0.00,,,0.00,Wunderground v.1.15,2013-06-10 21:42:00,
2013-06-10 16:48:00,76.9,65.1,29.83,ESE,106,7.0,10.0,67,0.00,,,0.00,Wunderground v.1.15,2013-06-10 21:48:00,
2013-06-10 16:54:00,76.7,64.0,29.83,ESE,117,5.0,13.0,66,0.00,,,0.00,weatherlink.com 1.10,2013-06-10 21:54:00,
2013-06-10 17:00:00,76.8,64.1,29.83,SE,140,7.0,7.0,65,0.00,,,0.00,Wunderground v.1.15,2013-06-10 22:00:00,
2013-06-10 17:05:00,76.4,64.2,29.82,ESE,111,6.0,7.0,66,0.00,,,0.00,Wunderground v.1.15,2013-06-10 22:05:00,
2013-06-10 17:10:00,76.5,62.5,29.82,SSE,161,6.0,7.0,62,0.00,,,0.00,Wunderground v.1.15,2013-06-10 22:10:00,
2013-06-10 17:16:00,76.5,63.4,29.82,SE,142,7.0,9.0,64,0.00,,,0.00,Wunderground v.1.15,2013-06-10 22:16:00,
2013-06-10 17:21:00,76.7,64.0,29.82,SSE,147,4.0,10.0,65,0.00,,,0.00,weatherlink.com 1.10,2013-06-10 22:21:00,
2013-06-10 17:27:00,77.0,63.4,29.82,SE,130,6.0,11.0,63,0.00,,,0.00,Wunderground v.1.15,2013-06-10 22:27:00,
2013-06-10 17:33:00,76.9,64.2,29.82,ESE,121,6.0,7.0,65,0.00,,,0.00,Wunderground v.1.15,2013-06-10 22:33:00,
2013-06-10 17:39:00,77.2,65.4,29.81,SSE,157,7.0,9.0,67,0.00,,,0.00,Wunderground v.1.15,2013-06-10 22:39:00,
2013-06-10 17:45:00,77.3,65.5,29.81,ESE,111,8.0,12.0,67,0.00,,,0.00,Wunderground v.1.15,2013-06-10 22:45:00,
2013-06-10 17:50:00,77.2,65.0,29.80,ESE,119,8.0,10.0,66,0.00,,,0.00,Wunderground v.1.15,2013-06-10 22:50:00,
2013-06-10 17:56:00,77.3,64.2,29.80,ESE,110,9.0,16.0,64,0.00,,,0.00,Wunderground v.1.15,2013-06-10 22:56:00,
2013-06-10 18:02:00,77.0,64.8,29.78,ESE,122,9.0,11.0,66,0.00,,,0.00,Wunderground v.1.15,2013-06-10 23:02:00,
2013-06-10 18:07:00,77.1,64.4,29.78,ESE,121,9.0,12.0,65,0.00,,,0.00,Wunderground v.1.15,2013-06-10 23:07:00,
2013-06-10 18:12:00,77.1,64.4,29.78,SSE,149,10.0,10.0,65,0.00,,,0.00,Wunderground v.1.15,2013-06-10 23:12:00,
2013-06-10 18:17:00,77.2,65.0,29.78,SE,140,9.0,10.0,66,0.00,,,0.00,Wunderground v.1.15,2013-06-10 23:17:00,
2013-06-10 18:23:00,77.3,65.5,29.78,SSE,152,8.0,9.0,67,0.00,,,0.00,Wunderground v.1.15,2013-06-10 23:23:00,
2013-06-10 18:29:00,77.4,65.1,29.78,SE,125,8.0,9.0,66,0.00,,,0.00,Wunderground v.1.15,2013-06-10 23:29:00,
2013-06-10 18:35:00,77.3,65.1,29.78,SE,137,8.0,12.0,66,0.00,,,0.00,Wunderground v.1.15,2013-06-10 23:35:00,
2013-06-10 18:40:00,77.2,65.4,29.78,SSE,148,7.0,7.0,67,0.00,,,0.00,Wunderground v.1.15,2013-06-10 23:40:00,
2013-06-10 18:46:00,77.1,65.3,29.79,SSE,148,7.0,12.0,67,0.00,,,0.00,Wunderground v.1.15,2013-06-10 23:46:00,
2013-06-10 18:52:00,77.0,65.2,29.79,ESE,114,8.0,8.0,67,0.00,,,0.00,Wunderground v.1.15,2013-06-10 23:52:00,
2013-06-10 18:57:00,76.8,64.1,29.79,ESE,119,8.0,9.0,65,0.00,,,0.00,Wunderground v.1.15,2013-06-10 23:57:00,
2013-06-10 19:03:00,76.9,64.7,29.80,South,176,7.0,8.0,66,0.00,,,0.00,Wunderground v.1.15,2013-06-11 00:03:00,
2013-06-10 19:10:00,76.8,65.0,29.80,SSE,153,5.0,5.0,67,0.00,,,0.00,Wunderground v.1.15,2013-06-11 00:10:00,
2013-06-10 19:15:00,76.8,64.6,29.80,South,171,5.0,6.0,66,0.00,,,0.00,Wunderground v.1.15,2013-06-11 00:15:00,
2013-06-10 19:21:00,76.7,64.5,29.81,SSW,196,6.0,6.0,66,0.00,,,0.00,Wunderground v.1.15,2013-06-11 00:21:00,
2013-06-10 19:27:00,76.6,64.8,29.81,SE,135,5.0,6.0,67,0.00,,,0.00,Wunderground v.1.15,2013-06-11 00:27:00,
2013-06-10 19:32:00,76.6,65.2,29.81,SSW,195,4.0,6.0,68,0.00,,,0.00,Wunderground v.1.15,2013-06-11 00:32:00,
2013-06-10 19:38:00,76.7,65.3,29.81,South,172,3.0,6.0,68,0.00,,,0.00,Wunderground v.1.15,2013-06-11 00:38:00,
2013-06-10 19:43:00,76.7,65.3,29.81,South,190,3.0,6.0,68,0.00,,,0.00,Wunderground v.1.15,2013-06-11 00:43:00,
2013-06-10 19:48:00,76.7,65.3,29.82,South,183,3.0,6.0,68,0.00,,,0.00,Wunderground v.1.15,2013-06-11 00:48:00,
2013-06-10 19:55:00,76.6,64.8,29.81,South,183,4.0,6.0,67,0.00,,,0.00,Wunderground v.1.15,2013-06-11 00:55:00,
2013-06-10 20:01:00,76.4,65.1,29.81,SSE,161,5.0,6.0,68,0.00,,,0.00,Wunderground v.1.15,2013-06-11 01:01:00,
2013-06-10 20:06:00,76.2,64.4,29.81,South,186,5.0,7.0,67,0.00,,,0.00,Wunderground v.1.15,2013-06-11 01:06:00,
2013-06-10 20:12:00,75.9,64.6,29.82,SSE,165,4.0,6.0,68,0.00,,,0.00,Wunderground v.1.15,2013-06-11 01:12:00,
2013-06-10 20:18:00,75.7,64.4,29.82,SSE,165,4.0,6.0,68,0.00,,,0.00,Wunderground v.1.15,2013-06-11 01:18:00,
2013-06-10 20:23:00,75.5,64.2,29.82,South,169,3.0,6.0,68,0.00,,,0.00,Wunderground v.1.15,2013-06-11 01:23:00,
2013-06-10 20:29:00,75.2,64.3,29.81,SSE,165,3.0,6.0,69,0.00,,,0.00,Wunderground v.1.15,2013-06-11 01:29:00,
2013-06-10 20:34:00,74.9,64.0,29.81,SSE,150,3.0,6.0,69,0.00,,,0.00,Wunderground v.1.15,2013-06-11 01:34:00,
2013-06-10 20:39:00,74.6,64.0,29.81,SE,133,3.0,6.0,70,0.00,,,0.00,weatherlink.com 1.10,2013-06-11 01:39:00,
2013-06-10 20:45:00,74.1,64.1,29.82,SE,136,3.0,6.0,71,0.00,,,0.00,Wunderground v.1.15,2013-06-11 01:45:00,
2013-06-10 20:51:00,73.6,64.0,29.82,SE,131,3.0,6.0,72,0.00,,,0.00,Wunderground v.1.15,2013-06-11 01:51:00,
2013-06-10 20:56:00,73.2,64.0,29.82,ESE,114,3.0,6.0,73,0.00,,,0.00,Wunderground v.1.15,2013-06-11 01:56:00,
2013-06-10 21:02:00,72.8,64.0,29.82,ESE,115,3.0,6.0,74,0.00,,,0.00,Wunderground v.1.15,2013-06-11 02:02:00,
2013-06-10 21:07:00,72.5,64.0,29.82,ESE,115,3.0,4.0,75,0.00,,,0.00,weatherlink.com 1.10,2013-06-11 02:07:00,
2013-06-10 21:14:00,72.0,64.0,29.82,ESE,116,3.0,6.0,76,0.00,,,0.00,Wunderground v.1.15,2013-06-11 02:14:00,
2013-06-10 21:20:00,71.5,63.9,29.82,ESE,116,2.0,6.0,77,0.00,,,0.00,Wunderground v.1.15,2013-06-11 02:20:00,
2013-06-10 21:26:00,70.8,64.0,29.82,East,95,2.0,6.0,79,0.00,,,0.00,Wunderground v.1.15,2013-06-11 02:26:00,
2013-06-10 21:32:00,70.2,63.7,29.82,East,94,2.0,6.0,80,0.00,,,0.00,Wunderground v.1.15,2013-06-11 02:32:00,
2013-06-10 21:37:00,69.8,63.7,29.82,East,88,2.0,6.0,81,0.00,,,0.00,Wunderground v.1.15,2013-06-11 02:37:00,
2013-06-10 21:43:00,69.4,63.3,29.82,ENE,67,3.0,6.0,81,0.00,,,0.00,Wunderground v.1.15,2013-06-11 02:43:00,
2013-06-10 21:49:00,69.3,63.2,29.83,ENE,67,3.0,6.0,81,0.00,,,0.00,Wunderground v.1.15,2013-06-11 02:49:00,
2013-06-10 21:54:00,69.1,63.0,29.83,East,80,2.0,6.0,81,0.00,,,0.00,Wunderground v.1.15,2013-06-11 02:54:00,
2013-06-10 22:00:00,68.9,63.2,29.82,East,80,1.0,1.0,82,0.00,,,0.00,Wunderground v.1.15,2013-06-11 03:00:00,
2013-06-10 22:06:00,68.8,63.1,29.82,East,80,0.0,6.0,82,0.00,,,0.00,Wunderground v.1.15,2013-06-11 03:06:00,
2013-06-10 22:11:00,68.8,63.1,29.83,East,80,0.0,6.0,82,0.00,,,0.00,Wunderground v.1.15,2013-06-11 03:11:00,
2013-06-10 22:17:00,69.0,63.6,29.83,East,81,1.0,6.0,83,0.00,,,0.00,Wunderground v.1.15,2013-06-11 03:17:00,
2013-06-10 22:23:00,69.3,64.0,29.83,SE,125,3.0,5.0,82,0.00,,,0.00,weatherlink.com 1.10,2013-06-11 03:23:00,
2013-06-10 22:28:00,69.5,63.8,29.83,SE,132,3.0,6.0,82,0.00,,,0.00,Wunderground v.1.15,2013-06-11 03:28:00,
2013-06-10 22:34:00,69.4,63.7,29.83,ESE,117,4.0,6.0,82,0.00,,,0.00,Wunderground v.1.15,2013-06-11 03:34:00,
2013-06-10 22:41:00,69.4,63.7,29.83,SE,125,4.0,6.0,82,0.00,,,0.00,Wunderground v.1.15,2013-06-11 03:41:00,
2013-06-10 22:47:00,69.5,63.8,29.83,ESE,109,4.0,6.0,82,0.00,,,0.00,Wunderground v.1.15,2013-06-11 03:47:00,
2013-06-10 22:52:00,69.4,63.7,29.83,ESE,102,3.0,6.0,82,0.00,,,0.00,Wunderground v.1.15,2013-06-11 03:52:00,
2013-06-10 22:57:00,69.3,63.9,29.84,East,99,2.0,6.0,83,0.00,,,0.00,Wunderground v.1.15,2013-06-11 03:57:00,
2013-06-10 23:02:00,69.1,63.7,29.84,ENE,70,2.0,6.0,83,0.00,,,0.00,Wunderground v.1.15,2013-06-11 04:02:00,
2013-06-10 23:04:00,69.0,63.6,29.84,ENE,66,2.0,6.0,83,0.00,,,0.00,Wunderground v.1.15,2013-06-11 04:04:00,
2013-06-10 23:07:00,68.9,64.0,29.84,ENE,67,2.0,4.0,84,0.00,,,0.00,weatherlink.com 1.10,2013-06-11 04:07:00,
2013-06-10 23:08:00,68.9,63.9,29.84,ENE,67,3.0,6.0,84,0.00,,,0.00,Wunderground v.1.15,2013-06-11 04:08:00,
2013-06-10 23:13:00,68.7,63.7,29.84,ENE,67,2.0,6.0,84,0.00,,,0.00,Wunderground v.1.15,2013-06-11 04:13:00,
2013-06-10 23:19:00,68.4,63.4,29.84,ENE,67,2.0,6.0,84,0.00,,,0.00,Wunderground v.1.15,2013-06-11 04:19:00,
2013-06-10 23:26:00,68.0,63.3,29.85,ENE,67,1.0,6.0,85,0.00,,,0.00,Wunderground v.1.15,2013-06-11 04:26:00,
2013-06-10 23:31:00,68.0,63.3,29.84,ENE,67,1.0,6.0,85,0.00,,,0.00,Wunderground v.1.15,2013-06-11 04:31:00,
2013-06-10 23:37:00,68.0,64.0,29.84,ENE,67,2.0,3.0,86,0.00,,,0.00,weatherlink.com 1.10,2013-06-11 04:37:00,
2013-06-10 23:42:00,68.0,63.7,29.84,ENE,67,2.0,6.0,86,0.00,,,0.00,Wunderground v.1.15,2013-06-11 04:42:00,
2013-06-10 23:48:00,68.0,63.7,29.84,ENE,67,2.0,6.0,86,0.00,,,0.00,Wunderground v.1.15,2013-06-11 04:48:00,
2013-06-10 23:54:00,67.9,63.9,29.84,ENE,67,3.0,6.0,87,0.00,,,0.00,Wunderground v.1.15,2013-06-11 04:54:00,
2013-06-10 23:59:00,67.9,63.9,29.84,ENE,67,3.0,6.0,87,0.00,,,0.00,Wunderground v.1.15,2013-06-11 04:59:00,